Time;durP1;ratioP1;P1;durP2;ratioP2;P2;SDS_P1;SDS_P2;PMS_P1;PMS_P2;Temp;Humidity;BMP_temperature;BMP_pressure;BME280_temperature;BME280_humidity;BME280_pressure;Samples;Min_cycle;Max_cycle;Signal;HPM_P1;HPM_P2
2020/12/30 00:00:40;;;;;;;14.27;5.27;;;;;;;2.78;84.21;98992.69;3636252;79;98138;-86
2020/12/30 00:05:42;;;;;;;12.57;5.77;;;;;;;2.67;84.19;98988.39;3646443;80;26064;-86
2020/12/30 00:10:43;;;;;;;12.27;4.83;;;;;;;2.60;84.35;98990.19;3632672;80;98137;-85
2020/12/30 00:15:44;;;;;;;13.57;5.00;;;;;;;2.58;84.49;98993.84;3635417;79;26119;-85
2020/12/30 00:20:45;;;;;;;13.87;5.33;;;;;;;2.61;84.44;98989.84;3633090;80;98327;-85
2020/12/30 00:25:46;;;;;;;14.57;4.87;;;;;;;2.63;84.33;98998.99;3637518;79;26296;-86
2020/12/30 00:30:47;;;;;;;12.73;4.03;;;;;;;2.57;84.33;99007.22;3620754;80;97792;-86
2020/12/30 00:35:48;;;;;;;12.17;4.30;;;;;;;2.48;84.53;99012.86;3616914;80;33041;-86
2020/12/30 00:40:49;;;;;;;13.93;5.15;;;;;;;2.44;84.69;99016.63;3609702;80;97751;-86
2020/12/30 00:45:50;;;;;;;11.70;4.83;;;;;;;2.46;84.72;99040.16;3622748;80;33061;-85
2020/12/30 00:50:50;;;;;;;12.97;4.07;;;;;;;2.53;84.73;99045.72;3619136;80;97642;-86
2020/12/30 00:55:51;;;;;;;12.60;4.83;;;;;;;2.57;84.59;99049.30;3619736;80;32993;-86
2020/12/30 01:00:52;;;;;;;12.23;4.23;;;;;;;2.59;84.45;99053.80;3606875;80;97837;-86
2020/12/30 01:05:53;;;;;;;12.30;3.83;;;;;;;2.46;84.46;99058.58;3611695;80;31222;-86
2020/12/30 01:10:55;;;;;;;11.57;4.40;;;;;;;2.40;84.46;99045.06;3603368;80;97474;-85
2020/12/30 01:15:55;;;;;;;10.10;3.80;;;;;;;2.39;84.63;99042.14;3627991;80;31721;-85
2020/12/30 01:21:03;;;;;;;12.87;4.27;;;;;;;2.44;84.63;99041.87;3628724;80;97642;-85
2020/12/30 01:26:04;;;;;;;10.93;3.90;;;;;;;2.48;84.55;99049.52;3610393;80;98450;-85
2020/12/30 01:31:06;;;;;;;8.07;3.30;;;;;;;2.47;84.35;99049.87;3640792;80;36248;-85
2020/12/30 01:36:06;;;;;;;12.50;4.27;;;;;;;2.36;84.34;99057.00;3632461;80;97564;-86
2020/12/30 01:41:08;;;;;;;15.57;3.97;;;;;;;2.28;84.49;99061.49;3625897;80;32247;-85
2020/12/30 01:46:09;;;;;;;12.63;4.40;;;;;;;2.27;84.46;99065.91;3607482;80;98445;-86
2020/12/30 01:51:10;;;;;;;12.90;4.43;;;;;;;2.28;84.63;99067.48;3645785;80;32164;-85
2020/12/30 01:56:15;;;;;;;10.97;4.03;;;;;;;2.30;84.54;99089.05;3633605;80;98161;-85
2020/12/30 02:01:15;;;;;;;12.00;4.00;;;;;;;2.25;84.60;99099.41;3644560;80;31840;-85
2020/12/30 02:06:16;;;;;;;10.50;3.93;;;;;;;2.18;84.48;99106.05;3634890;80;98399;-85
2020/12/30 02:11:23;;;;;;;10.13;3.83;;;;;;;1.96;84.62;99097.97;3639729;79;31803;-85
2020/12/30 02:16:24;;;;;;;9.53;3.47;;;;;;;1.96;84.62;99097.97;3636290;80;98256;-84
2020/12/30 02:21:26;;;;;;;9.60;3.57;;;;;;;1.91;84.82;99106.38;3632832;80;31793;-85
2020/12/30 02:26:27;;;;;;;9.90;3.77;;;;;;;1.95;84.82;99117.31;3624695;80;97782;-85
2020/12/30 02:31:28;;;;;;;10.82;3.98;;;;;;;1.98;84.86;99111.19;3608609;80;31716;-85
2020/12/30 02:36:30;;;;;;;10.17;3.47;;;;;;;1.92;84.63;99113.95;3608241;80;97975;-85
2020/12/30 02:41:31;;;;;;;12.43;3.70;;;;;;;1.81;84.74;99123.17;3620883;80;31742;-85
2020/12/30 02:46:32;;;;;;;9.57;3.77;;;;;;;1.81;84.74;99123.17;3610054;80;97971;-84
2020/12/30 02:51:33;;;;;;;8.40;3.03;;;;;;;1.74;84.72;99112.72;3623770;79;31753;-84
2020/12/30 02:56:35;;;;;;;9.50;3.50;;;;;;;1.63;84.34;99102.18;3614321;80;97689;-84
2020/12/30 03:01:36;;;;;;;10.80;3.40;;;;;;;1.50;84.52;99102.86;3611381;80;31786;-84
2020/12/30 03:06:37;;;;;;;11.60;5.00;;;;;;;1.56;84.72;99116.92;3607836;80;97826;-84
2020/12/30 03:11:38;;;;;;;12.70;5.27;;;;;;;1.55;84.42;99119.42;3627351;80;31785;-84
2020/12/30 03:16:39;;;;;;;17.40;6.80;;;;;;;1.41;84.18;99120.40;3608563;80;97999;-84
2020/12/30 03:21:40;;;;;;;14.33;4.85;;;;;;;1.24;84.10;99113.40;3629995;80;32774;-84
2020/12/30 03:26:41;;;;;;;13.90;5.43;;;;;;;1.11;84.31;99113.81;3588981;80;98300;-84
2020/12/30 03:31:42;;;;;;;18.20;6.77;;;;;;;1.00;84.40;99107.31;3620029;80;27021;-84
2020/12/30 03:36:43;;;;;;;24.87;8.83;;;;;;;0.96;84.53;99110.48;3611561;80;97962;-85
2020/12/30 03:41:44;;;;;;;23.53;8.60;;;;;;;0.98;84.62;99113.07;3617740;80;28057;-84
2020/12/30 03:46:45;;;;;;;19.50;7.03;;;;;;;0.96;84.67;99111.84;3613254;80;98236;-84
2020/12/30 03:51:46;;;;;;;17.43;6.80;;;;;;;0.83;84.66;99115.16;3612577;80;35078;-84
2020/12/30 03:56:47;;;;;;;22.70;8.23;;;;;;;0.71;84.84;99102.25;3612516;80;97826;-83
2020/12/30 04:01:48;;;;;;;22.23;6.80;;;;;;;0.64;84.76;99106.09;3618591;80;35122;-84
2020/12/30 04:06:49;;;;;;;24.50;8.37;;;;;;;0.54;84.94;99109.27;3606475;80;98213;-84
2020/12/30 04:11:51;;;;;;;18.30;6.60;;;;;;;0.49;85.05;99119.78;3615634;80;35082;-84
2020/12/30 04:16:56;;;;;;;17.00;6.63;;;;;;;0.44;85.13;99122.72;3622621;80;98256;-84
2020/12/30 04:21:57;;;;;;;23.80;8.37;;;;;;;0.43;85.26;99125.77;3603894;80;26576;-83
2020/12/30 04:26:58;;;;;;;27.73;10.07;;;;;;;0.31;85.36;99122.53;3617153;80;98127;-84
2020/12/30 04:31:59;;;;;;;24.70;10.00;;;;;;;0.26;85.65;99127.38;3649867;80;34996;-84
2020/12/30 04:37:00;;;;;;;25.47;9.53;;;;;;;0.24;85.97;99132.34;3636078;79;98542;-84
2020/12/30 04:42:01;;;;;;;26.10;8.90;;;;;;;0.22;86.23;99130.56;3642979;80;34991;-83
2020/12/30 04:47:03;;;;;;;32.70;12.33;;;;;;;0.18;86.37;99131.01;3627947;80;98292;-83
2020/12/30 04:52:05;;;;;;;29.97;10.07;;;;;;;0.11;86.63;99119.39;3638065;80;34990;-84
2020/12/30 04:57:08;;;;;;;42.30;13.47;;;;;;;0.12;86.72;99121.55;3626569;80;98215;-84
2020/12/30 05:02:11;;;;;;;48.10;16.63;;;;;;;0.09;86.63;99131.68;3651195;80;35002;-84
2020/12/30 05:07:14;;;;;;;39.43;13.97;;;;;;;0.09;86.50;99133.03;3628010;80;98143;-83
2020/12/30 05:12:19;;;;;;;34.07;12.40;;;;;;;-0.04;87.02;99147.11;3642401;80;34973;-83
2020/12/30 05:17:20;;;;;;;35.10;12.07;;;;;;;-0.16;86.87;99145.77;3627852;80;99001;-83
2020/12/30 05:22:21;;;;;;;35.43;14.47;;;;;;;-0.18;87.23;99153.98;3636760;80;34971;-83
2020/12/30 05:27:24;;;;;;;51.27;17.93;;;;;;;-0.18;87.29;99158.04;3618680;80;98248;-84
2020/12/30 05:32:25;;;;;;;39.43;15.73;;;;;;;-0.20;87.20;99159.72;3615630;80;35035;-83
2020/12/30 05:37:34;;;;;;;56.93;24.37;;;;;;;-0.22;87.34;99169.29;3605952;80;98509;-83
2020/12/30 05:42:35;;;;;;;61.43;24.57;;;;;;;-0.33;87.39;99155.98;3615649;80;35035;-82
2020/12/30 05:47:35;;;;;;;49.37;18.33;;;;;;;-0.27;87.29;99171.66;3617201;80;98262;-84
2020/12/30 05:52:36;;;;;;;35.53;14.63;;;;;;;-0.32;87.50;99183.81;3627077;80;35652;-84
2020/12/30 05:57:37;;;;;;;28.27;11.08;;;;;;;-0.36;87.90;99193.16;3610432;80;98857;-83
2020/12/30 06:02:47;;;;;;;34.70;12.93;;;;;;;-0.38;88.13;99198.13;3621404;80;35124;-83
2020/12/30 06:07:51;;;;;;;37.40;14.63;;;;;;;-0.42;88.35;99205.31;3609664;80;98231;-83
2020/12/30 06:12:55;;;;;;;45.13;14.60;;;;;;;-0.38;88.41;99206.78;3612107;80;35064;-83
2020/12/30 06:18:09;;;;;;;52.07;19.10;;;;;;;-0.38;88.48;99208.13;3604129;80;98113;-83
2020/12/30 06:23:15;;;;;;;48.70;19.97;;;;;;;-0.35;88.54;99216.36;3608994;80;35520;-83
2020/12/30 06:28:19;;;;;;;41.25;14.38;;;;;;;-0.36;88.63;99214.78;3589321;80;98289;-83
2020/12/30 06:33:23;;;;;;;28.03;11.17;;;;;;;-0.38;88.98;99215.69;3574163;80;35776;-83
2020/12/30 06:38:30;;;;;;;25.83;9.97;;;;;;;-0.32;89.00;99220.30;3566363;81;98769;-83
2020/12/30 06:43:42;;;;;;;;;;;;;;;-0.29;89.15;99219.07;3578481;81;26508;-82
2020/12/30 06:48:57;;;;;;;28.13;11.47;;;;;;;-0.21;89.20;99223.61;3561221;80;84308;-83
2020/12/30 06:53:59;;;;;;;30.83;11.63;;;;;;;-0.25;88.95;99218.63;3570560;81;34974;-84
2020/12/30 06:59:00;;;;;;;26.65;10.63;;;;;;;-0.18;89.04;99231.03;3573692;80;98327;-83
2020/12/30 07:04:08;;;;;;;37.77;17.87;;;;;;;-0.11;88.98;99236.67;3570596;81;35043;-83
2020/12/30 07:09:09;;;;;;;33.98;14.28;;;;;;;-0.09;88.87;99246.61;3566104;81;98566;-83
2020/12/30 07:14:17;;;;;;;28.23;10.87;;;;;;;-0.12;88.75;99249.42;3548113;81;35200;-83
2020/12/30 07:19:30;;;;;;;29.97;11.80;;;;;;;-0.12;88.60;99249.20;3569328;81;98619;-83
2020/12/30 07:24:45;;;;;;;24.57;11.23;;;;;;;-0.15;88.68;99250.66;3566575;80;35589;-83
2020/12/30 07:29:47;;;;;;;48.83;20.20;;;;;;;-0.12;88.54;99257.31;3594957;80;98151;-83
2020/12/30 07:34:52;;;;;;;75.83;30.10;;;;;;;-0.11;88.69;99271.27;3613394;80;35009;-82
2020/12/30 07:39:53;;;;;;;29.83;12.03;;;;;;;-0.18;88.71;99270.23;3609317;80;98575;-82
2020/12/30 07:44:58;;;;;;;33.17;17.40;;;;;;;-0.22;88.84;99280.70;3622886;80;35021;-83
2020/12/30 07:50:01;;;;;;;34.17;14.73;;;;;;;-0.29;88.96;99292.05;3619014;80;98532;-83
2020/12/30 07:55:01;;;;;;;31.77;14.00;;;;;;;-0.28;89.38;99292.86;3619826;80;34990;-82
2020/12/30 08:00:03;;;;;;;27.07;13.50;;;;;;;-0.22;89.58;99288.82;3609049;80;98502;-82
2020/12/30 08:05:04;;;;;;;26.80;13.27;;;;;;;-0.12;89.85;99285.70;3616038;80;35088;-83
2020/12/30 08:10:05;;;;;;;31.27;13.43;;;;;;;0.00;89.69;99277.06;3605268;80;98440;-82
2020/12/30 08:15:06;;;;;;;34.73;16.17;;;;;;;0.00;89.69;99277.06;3611481;80;35539;-83
2020/12/30 08:20:07;;;;;;;34.70;15.43;;;;;;;0.30;89.95;99296.03;3622994;80;98291;-83
2020/12/30 08:25:07;;;;;;;35.47;16.17;;;;;;;0.43;90.13;99298.41;3608930;80;35879;-84
2020/12/30 08:30:10;;;;;;;31.03;15.23;;;;;;;0.58;90.13;99307.22;3619801;80;98145;-83
2020/12/30 08:35:23;;;;;;;27.13;13.17;;;;;;;0.77;90.94;99310.72;3624654;80;35033;-83
2020/12/30 08:40:28;;;;;;;28.47;13.33;;;;;;;1.15;91.42;99316.55;3624395;80;98597;-83
2020/12/30 08:45:33;;;;;;;37.67;19.60;;;;;;;1.30;89.98;99321.23;3620354;80;34967;-82
2020/12/30 08:50:35;;;;;;;37.23;18.00;;;;;;;1.50;90.11;99326.51;3616695;80;98290;-81
2020/12/30 08:55:35;;;;;;;38.20;18.47;;;;;;;1.69;89.58;99334.79;3630944;80;34976;-82
2020/12/30 09:00:37;;;;;;;33.23;14.77;;;;;;;1.84;89.47;99331.34;3626880;80;97893;-83
2020/12/30 09:05:39;;;;;;;37.60;17.07;;;;;;;1.88;88.91;99334.16;3621779;80;35065;-83
2020/12/30 09:10:41;;;;;;;41.23;18.73;;;;;;;1.87;88.98;99344.79;3618764;80;97966;-82
2020/12/30 09:15:43;;;;;;;34.33;18.73;;;;;;;1.89;88.80;99340.59;3626229;80;34954;-83
2020/12/30 09:20:44;;;;;;;42.73;18.30;;;;;;;1.94;88.71;99343.62;3625741;80;98269;-82
2020/12/30 09:25:45;;;;;;;46.33;20.03;;;;;;;2.01;88.67;99341.89;3622334;80;34962;-82
2020/12/30 09:30:52;;;;;;;39.70;18.57;;;;;;;2.12;88.40;99336.73;3605729;80;98294;-82
2020/12/30 09:35:53;;;;;;;34.20;17.83;;;;;;;2.31;88.44;99328.17;3617334;80;35005;-81
2020/12/30 09:40:55;;;;;;;32.30;15.77;;;;;;;2.53;88.40;99318.62;3610003;80;98130;-82
2020/12/30 09:46:00;;;;;;;36.00;17.40;;;;;;;2.61;87.70;99319.00;3618941;80;34936;-82
2020/12/30 09:51:01;;;;;;;32.50;16.13;;;;;;;2.67;87.72;99317.63;3613208;80;35012;-82
2020/12/30 09:56:01;;;;;;;33.43;14.23;;;;;;;2.72;87.03;99327.64;3606190;80;106172;-83
2020/12/30 10:01:02;;;;;;;35.57;15.70;;;;;;;2.80;86.97;99318.51;3615972;79;35098;-83
2020/12/30 10:06:03;;;;;;;33.10;14.47;;;;;;;2.93;86.90;99317.84;3615877;80;98578;-83
2020/12/30 10:11:04;;;;;;;37.03;17.40;;;;;;;3.12;86.92;99332.27;3611639;80;35048;-83
2020/12/30 10:16:05;;;;;;;27.47;13.63;;;;;;;3.32;86.78;99333.09;3611284;80;98170;-83
2020/12/30 10:21:05;;;;;;;29.07;14.63;;;;;;;3.43;85.83;99324.03;3606831;80;35615;-82
2020/12/30 10:26:07;;;;;;;33.07;14.97;;;;;;;3.50;85.55;99317.38;3602882;80;98505;-82
2020/12/30 10:31:08;;;;;;;28.90;13.40;;;;;;;3.55;85.87;99313.02;3614396;80;32856;-82
2020/12/30 10:36:09;;;;;;;23.53;11.40;;;;;;;3.61;85.03;99306.73;3585958;80;99418;-82
2020/12/30 10:41:17;;;;;;;30.27;15.17;;;;;;;3.69;84.00;99302.44;3621076;80;32951;-82
2020/12/30 10:46:19;;;;;;;26.23;12.77;;;;;;;3.80;83.48;99299.35;3608583;80;100190;-82
2020/12/30 10:51:19;;;;;;;22.90;12.03;;;;;;;3.91;83.47;99291.38;3614640;80;32658;-82
2020/12/30 10:56:20;;;;;;;27.30;12.17;;;;;;;4.02;81.76;99286.36;3611669;80;98069;-82
2020/12/30 11:01:21;;;;;;;30.97;13.57;;;;;;;4.13;81.84;99276.45;3612434;80;32774;-81
2020/12/30 11:06:22;;;;;;;29.67;14.13;;;;;;;4.28;81.77;99278.28;3619466;80;98219;-81
2020/12/30 11:11:22;;;;;;;25.97;11.73;;;;;;;4.39;81.17;99286.63;3611092;80;33672;-82
2020/12/30 11:16:24;;;;;;;35.77;15.70;;;;;;;4.46;80.68;99277.20;3607003;80;98258;-82
2020/12/30 11:21:25;;;;;;;33.57;13.97;;;;;;;4.53;80.58;99278.11;3620330;80;33307;-82
2020/12/30 11:26:26;;;;;;;28.62;11.12;;;;;;;4.61;79.71;99277.09;3528838;82;98138;-81
2020/12/30 11:31:27;;;;;;;20.97;10.38;;;;;;;4.69;79.77;99273.91;3547157;82;31960;-82
2020/12/30 11:36:28;;;;;;;19.13;9.67;;;;;;;4.77;79.11;99280.45;3629653;79;98597;-82
2020/12/30 11:41:29;;;;;;;22.50;9.27;;;;;;;4.82;79.21;99274.70;3622188;79;26325;-82
2020/12/30 11:46:31;;;;;;;25.63;10.53;;;;;;;4.84;79.26;99284.64;3628495;79;98007;-82
2020/12/30 11:51:39;;;;;;;26.45;9.83;;;;;;;4.86;79.08;99282.33;3639562;80;26140;-82
2020/12/30 11:56:40;;;;;;;22.73;10.63;;;;;;;4.90;78.89;99283.18;3630797;80;98294;-82
2020/12/30 12:01:41;;;;;;;23.30;10.33;;;;;;;4.91;78.78;99289.42;3643328;79;26430;-82
2020/12/30 12:06:42;;;;;;;20.30;8.85;;;;;;;4.97;78.38;99289.33;3629224;80;98193;-82
2020/12/30 12:11:43;;;;;;;21.83;9.70;;;;;;;5.05;78.03;99290.42;3636927;80;26489;-81
2020/12/30 12:16:53;;;;;;;24.20;11.67;;;;;;;5.17;78.13;99290.77;3635754;80;98328;-82
2020/12/30 12:21:53;;;;;;;23.53;11.20;;;;;;;5.28;78.15;99290.33;3637051;80;28241;-82
2020/12/30 12:26:54;;;;;;;23.43;11.17;;;;;;;5.31;77.77;99287.67;3628800;80;98013;-82
2020/12/30 12:32:17;;;;;;;23.90;11.07;;;;;;;5.31;77.23;99290.41;3624543;80;26057;-83
2020/12/30 12:37:21;;;;;;;21.85;10.72;;;;;;;5.27;77.39;99290.13;3611397;80;98775;-82
2020/12/30 12:42:23;;;;;;;22.57;10.20;;;;;;;5.21;77.41;99286.95;3612621;80;27534;-82
2020/12/30 12:47:24;;;;;;;25.53;11.70;;;;;;;5.16;77.36;99286.47;3584636;80;98381;-82
2020/12/30 12:52:25;;;;;;;21.53;10.53;;;;;;;5.08;77.44;99285.58;3621813;80;26646;-81
2020/12/30 12:57:26;;;;;;;24.13;10.43;;;;;;;4.99;77.46;99291.09;3608618;80;98488;-82
2020/12/30 13:02:27;;;;;;;21.67;10.37;;;;;;;4.93;77.65;99278.94;3620256;80;26457;-83
2020/12/30 13:07:28;;;;;;;21.70;8.90;;;;;;;4.86;77.69;99280.97;3617321;80;98183;-83
2020/12/30 13:12:29;;;;;;;25.30;9.73;;;;;;;4.82;77.49;99273.90;3626850;80;26400;-83
2020/12/30 13:17:29;;;;;;;18.33;9.40;;;;;;;4.85;77.94;99281.36;3617273;80;98191;-82
2020/12/30 13:22:30;;;;;;;22.40;9.58;;;;;;;4.89;77.82;99287.06;3627280;80;26072;-84
2020/12/30 13:27:31;;;;;;;22.83;9.60;;;;;;;4.98;77.77;99278.62;3605809;80;98411;-82
2020/12/30 13:32:32;;;;;;;25.85;10.35;;;;;;;5.02;77.50;99283.56;3604749;80;33664;-84
2020/12/30 13:37:33;;;;;;;21.03;9.97;;;;;;;4.99;76.80;99290.53;3609370;80;98542;-83
2020/12/30 13:42:34;;;;;;;23.13;9.60;;;;;;;4.97;76.94;99293.41;3619856;80;33202;-83
2020/12/30 13:47:35;;;;;;;27.40;12.17;;;;;;;4.89;76.77;99292.52;3610096;80;98219;-82
2020/12/30 13:52:35;;;;;;;28.60;14.47;;;;;;;4.81;76.90;99290.05;3617024;80;33028;-81
2020/12/30 13:57:36;;;;;;;25.93;12.27;;;;;;;4.72;76.84;99294.95;3599078;80;98346;-82
2020/12/30 14:02:37;;;;;;;28.47;11.80;;;;;;;4.66;76.98;99309.48;3613243;80;32201;-83
2020/12/30 14:07:39;;;;;;;37.50;15.27;;;;;;;4.56;77.18;99314.17;3607089;80;98511;-82
2020/12/30 14:12:40;;;;;;;29.97;13.60;;;;;;;4.50;77.47;99317.55;3609992;80;31834;-84
2020/12/30 14:17:41;;;;;;;28.50;13.05;;;;;;;4.41;77.54;99319.72;3608187;80;98096;-83
2020/12/30 14:22:42;;;;;;;28.87;13.47;;;;;;;4.35;77.59;99325.26;3608760;80;32237;-82
2020/12/30 14:27:43;;;;;;;28.67;13.48;;;;;;;4.28;77.80;99326.50;3612434;80;98461;-83
2020/12/30 14:32:44;;;;;;;38.10;16.93;;;;;;;4.22;77.95;99332.03;3612995;80;31776;-83
2020/12/30 14:37:46;;;;;;;36.00;17.00;;;;;;;4.22;78.15;99339.64;3600612;80;98194;-84
2020/12/30 14:42:47;;;;;;;32.07;15.37;;;;;;;4.26;78.39;99332.30;3609390;80;31761;-83
2020/12/30 14:47:49;;;;;;;44.47;21.20;;;;;;;4.28;78.56;99342.84;3601836;79;98161;-84
2020/12/30 14:52:51;;;;;;;43.87;22.03;;;;;;;4.29;78.51;99340.33;3603884;80;98587;-84
2020/12/30 14:57:52;;;;;;;47.67;23.57;;;;;;;4.23;78.38;99335.77;3606418;79;98417;-83
2020/12/30 15:02:53;;;;;;;55.10;26.07;;;;;;;4.15;78.45;99338.13;3577085;80;98564;-84
2020/12/30 15:07:53;;;;;;;45.43;23.23;;;;;;;4.10;78.54;99338.41;3587790;80;98612;-84
2020/12/30 15:12:54;;;;;;;55.05;27.20;;;;;;;3.95;78.50;99331.14;3575568;80;98410;-83
2020/12/30 15:17:55;;;;;;;75.10;34.40;;;;;;;3.75;78.62;99335.02;3596850;80;98496;-83
2020/12/30 15:22:56;;;;;;;53.73;25.30;;;;;;;3.58;78.97;99329.20;3618135;80;28011;-84
2020/12/30 15:27:57;;;;;;;42.30;22.30;;;;;;;3.43;79.10;99340.91;3602754;80;98344;-85
2020/12/30 15:32:58;;;;;;;50.73;23.83;;;;;;;3.34;79.29;99343.83;3614132;80;25902;-85
2020/12/30 15:37:59;;;;;;;52.95;26.68;;;;;;;3.19;79.32;99342.52;3598636;80;99166;-84
2020/12/30 15:43:00;;;;;;;59.73;29.97;;;;;;;3.07;79.08;99342.64;3606469;80;35027;-84
2020/12/30 15:48:01;;;;;;;65.00;34.50;;;;;;;2.75;79.32;99347.33;3595957;80;98409;-85
2020/12/30 15:53:01;;;;;;;61.40;34.20;;;;;;;2.63;79.68;99350.11;3607610;80;35028;-84
2020/12/30 15:58:03;;;;;;;63.87;33.07;;;;;;;2.50;79.85;99349.98;3612036;80;98546;-84
2020/12/30 16:03:04;;;;;;;55.63;30.43;;;;;;;2.28;79.79;99355.20;3578044;80;97958;-82
2020/12/30 16:08:05;;;;;;;67.47;32.00;;;;;;;2.07;79.96;99355.42;3614217;80;35013;-83
2020/12/30 16:13:06;;;;;;;87.67;38.53;;;;;;;2.00;80.21;99359.87;3605982;80;98005;-83
2020/12/30 16:18:07;;;;;;;80.87;38.27;;;;;;;1.75;80.39;99362.47;3610705;80;35410;-83
2020/12/30 16:23:08;;;;;;;93.10;41.40;;;;;;;1.75;80.39;99362.47;3609857;80;98004;-83
2020/12/30 16:28:09;;;;;;;115.92;51.77;;;;;;;1.54;81.14;99357.78;3614858;80;33131;-83
2020/12/30 16:33:10;;;;;;;93.87;43.77;;;;;;;1.57;81.48;99362.51;3608335;80;97978;-83
2020/12/30 16:38:11;;;;;;;85.60;40.23;;;;;;;1.57;81.68;99367.38;3610813;80;32748;-84
2020/12/30 16:43:12;;;;;;;87.10;42.67;;;;;;;1.51;81.62;99370.10;3603019;80;97934;-83
2020/12/30 16:48:12;;;;;;;92.67;40.93;;;;;;;1.31;81.51;99375.10;3622039;80;32691;-84
2020/12/30 16:53:13;;;;;;;89.97;39.90;;;;;;;1.20;81.67;99375.34;3609398;80;98397;-83
2020/12/30 16:58:14;;;;;;;91.20;40.70;;;;;;;1.11;81.63;99386.85;3615110;80;32757;-83
2020/12/30 17:03:16;;;;;;;91.87;41.37;;;;;;;0.97;81.90;99391.84;3612977;80;97999;-83
2020/12/30 17:08:16;;;;;;;80.00;40.27;;;;;;;0.90;82.35;99388.11;3615490;80;32720;-83
2020/12/30 17:13:17;;;;;;;89.17;40.83;;;;;;;0.87;82.26;99396.34;3613805;80;97859;-83
2020/12/30 17:18:19;;;;;;;96.80;44.93;;;;;;;0.78;82.52;99396.23;3617466;80;33191;-83
2020/12/30 17:23:19;;;;;;;97.50;46.20;;;;;;;0.68;82.92;99396.12;3611925;80;98404;-83
2020/12/30 17:28:20;;;;;;;108.33;45.60;;;;;;;0.70;83.17;99395.20;3615694;80;27550;-83
2020/12/30 17:33:21;;;;;;;89.93;43.43;;;;;;;0.66;83.58;99402.99;3621518;80;98465;-83
2020/12/30 17:38:22;;;;;;;84.73;40.67;;;;;;;0.62;83.47;99396.66;3615853;80;26008;-83
2020/12/30 17:43:24;;;;;;;90.43;41.13;;;;;;;0.60;83.74;99417.30;3598456;80;98332;-83
2020/12/30 17:48:25;;;;;;;93.73;40.63;;;;;;;0.61;83.74;99426.99;3619892;80;26479;-83
2020/12/30 17:53:26;;;;;;;91.00;42.80;;;;;;;0.59;83.82;99427.91;3614480;80;98476;-84
2020/12/30 17:58:37;;;;;;;89.90;42.67;;;;;;;0.60;84.05;99428.70;3616444;80;26775;-83
2020/12/30 18:03:38;;;;;;;93.37;44.83;;;;;;;0.57;84.01;99436.93;3599085;80;97970;-84
2020/12/30 18:08:39;;;;;;;87.77;41.63;;;;;;;0.56;84.20;99440.74;3623411;80;26450;-82
2020/12/30 18:13:40;;;;;;;84.93;39.50;;;;;;;0.47;84.51;99452.78;3614256;80;98150;-82
2020/12/30 18:18:41;;;;;;;84.27;41.17;;;;;;;0.40;84.77;99453.33;3621253;80;26426;-83
2020/12/30 18:23:42;;;;;;;93.87;45.47;;;;;;;0.46;85.42;99446.60;3607386;80;98144;-82
2020/12/30 18:28:43;;;;;;;92.17;42.40;;;;;;;0.58;85.77;99449.89;3620651;80;26012;-82
2020/12/30 18:33:43;;;;;;;89.50;43.13;;;;;;;0.69;85.40;99457.81;3627897;80;98002;-82
2020/12/30 18:38:44;;;;;;;88.57;45.13;;;;;;;0.69;85.48;99458.61;3636406;80;26057;-83
2020/12/30 18:43:45;;;;;;;84.57;42.67;;;;;;;0.62;85.24;99457.00;3635697;80;97995;-83
2020/12/30 18:48:50;;;;;;;87.47;39.80;;;;;;;0.54;85.21;99459.80;3636811;80;33542;-83
2020/12/30 18:53:51;;;;;;;83.97;41.90;;;;;;;0.36;85.07;99457.84;3632667;80;98199;-83
2020/12/30 18:58:53;;;;;;;102.43;44.47;;;;;;;0.27;85.12;99471.20;3644897;79;33828;-83
2020/12/30 19:03:54;;;;;;;86.73;42.67;;;;;;;0.19;85.63;99470.18;3628410;80;98366;-83
2020/12/30 19:08:56;;;;;;;89.17;41.80;;;;;;;0.20;85.88;99478.52;3636927;80;33031;-82
2020/12/30 19:13:58;;;;;;;93.13;40.50;;;;;;;0.24;85.92;99490.81;3629622;80;97975;-85
2020/12/30 19:18:59;;;;;;;94.87;44.67;;;;;;;0.28;85.71;99488.46;3639870;80;33045;-84
2020/12/30 19:24:00;;;;;;;85.30;41.13;;;;;;;0.39;85.73;99496.40;3630356;80;97978;-83
2020/12/30 19:29:01;;;;;;;96.27;42.83;;;;;;;0.39;85.73;99496.40;3633361;80;33046;-84
2020/12/30 19:34:02;;;;;;;99.80;46.63;;;;;;;0.35;85.61;99504.17;3622738;79;98259;-83
2020/12/30 19:39:05;;;;;;;95.03;47.13;;;;;;;0.29;86.21;99505.50;3613533;80;33118;-83
2020/12/30 19:44:06;;;;;;;101.67;47.95;;;;;;;0.35;86.58;99495.50;3598144;80;98307;-83
2020/12/30 19:49:07;;;;;;;93.03;44.87;;;;;;;0.45;86.99;99500.48;3606721;80;33064;-83
2020/12/30 19:54:08;;;;;;;122.53;53.27;;;;;;;0.58;86.94;99500.77;3612596;80;98560;-84
2020/12/30 19:59:09;;;;;;;105.70;48.47;;;;;;;0.72;87.06;99505.31;3616952;80;33125;-84
2020/12/30 20:04:11;;;;;;;112.43;52.00;;;;;;;0.86;86.91;99510.42;3605540;80;98989;-84
2020/12/30 20:09:12;;;;;;;105.40;46.70;;;;;;;0.81;86.98;99511.98;3614408;80;33022;-84
2020/12/30 20:14:13;;;;;;;118.83;50.63;;;;;;;0.74;87.40;99514.46;3608740;80;98475;-84
2020/12/30 20:19:15;;;;;;;114.60;49.70;;;;;;;0.77;87.53;99516.52;3612802;80;32150;-85
2020/12/30 20:24:17;;;;;;;86.47;41.33;;;;;;;0.91;87.83;99525.11;3602473;80;98915;-84
2020/12/30 20:29:18;;;;;;;83.97;38.37;;;;;;;1.01;87.73;99530.91;3618904;80;32996;-84
2020/12/30 20:34:19;;;;;;;81.00;35.37;;;;;;;1.19;87.79;99535.55;3606188;80;98461;-85
2020/12/30 20:39:20;;;;;;;79.20;36.50;;;;;;;1.36;87.80;99529.92;3613236;80;33040;-85
2020/12/30 20:44:22;;;;;;;102.97;43.53;;;;;;;1.53;87.50;99534.57;3601910;80;98545;-84
2020/12/30 20:49:24;;;;;;;87.30;40.63;;;;;;;1.57;87.40;99526.55;3608290;80;33996;-83
2020/12/30 20:54:25;;;;;;;92.33;42.00;;;;;;;1.49;87.22;99535.02;3601235;80;98391;-84
2020/12/30 20:59:28;;;;;;;87.60;38.80;;;;;;;1.51;87.03;99531.42;3607557;80;33022;-84
2020/12/30 21:04:30;;;;;;;98.67;40.33;;;;;;;1.45;86.68;99524.64;3611683;79;98494;-85
2020/12/30 21:09:31;;;;;;;97.10;42.07;;;;;;;1.37;86.54;99526.11;3607671;80;33094;-84
2020/12/30 21:14:32;;;;;;;91.73;41.60;;;;;;;1.32;86.42;99528.45;3605205;80;98477;-83
2020/12/30 21:19:33;;;;;;;117.17;50.57;;;;;;;1.31;86.25;99517.97;3616902;80;32982;-84
2020/12/30 21:24:34;;;;;;;110.87;48.17;;;;;;;1.35;86.15;99522.92;3609424;80;98305;-85
2020/12/30 21:29:35;;;;;;;115.13;49.50;;;;;;;1.27;86.02;99526.55;3617850;80;33017;-85
2020/12/30 21:34:37;;;;;;;106.87;48.33;;;;;;;1.20;85.81;99537.92;3606325;80;98569;-85
2020/12/30 21:39:38;;;;;;;97.47;42.00;;;;;;;1.14;85.43;99543.34;3621780;80;31448;-85
2020/12/30 21:44:39;;;;;;;99.03;41.67;;;;;;;0.93;85.39;99538.55;3615480;80;98386;-84
2020/12/30 21:49:39;;;;;;;94.07;40.20;;;;;;;0.83;85.44;99544.38;3615667;80;31217;-85
2020/12/30 21:54:41;;;;;;;99.83;44.27;;;;;;;0.69;85.23;99552.58;3607837;80;98006;-84
2020/12/30 21:59:42;;;;;;;99.23;43.73;;;;;;;0.65;85.46;99555.16;3586126;80;28250;-85
2020/12/30 22:04:43;;;;;;;106.10;44.73;;;;;;;0.61;85.44;99556.16;3611816;80;98347;-85
2020/12/30 22:09:45;;;;;;;130.13;48.90;;;;;;;0.50;85.32;99561.17;3605136;80;31766;-84
2020/12/30 22:14:46;;;;;;;114.47;45.20;;;;;;;0.21;84.93;99561.27;3605992;80;98324;-85
2020/12/30 22:19:47;;;;;;;125.17;45.33;;;;;;;0.15;85.50;99556.36;3617388;80;31758;-85
2020/12/30 22:24:48;;;;;;;116.63;49.50;;;;;;;0.19;85.61;99562.70;3622310;80;97954;-85
2020/12/30 22:29:49;;;;;;;113.07;47.73;;;;;;;0.16;85.61;99575.53;3613711;80;32026;-84
2020/12/30 22:34:50;;;;;;;123.60;45.20;;;;;;;0.04;85.39;99577.61;3588530;80;98463;-84
2020/12/30 22:39:51;;;;;;;118.40;46.63;;;;;;;-0.04;85.72;99577.67;3557925;82;28922;-84
2020/12/30 22:44:52;;;;;;;116.80;49.10;;;;;;;-0.02;85.87;99588.39;3557430;81;98275;-83
2020/12/30 22:49:52;;;;;;;117.83;47.17;;;;;;;-0.04;86.10;99590.61;3489917;83;27055;-84
2020/12/30 22:54:53;;;;;;;111.08;48.23;;;;;;;0.01;86.24;99588.30;3482597;82;98690;-84
2020/12/30 22:59:54;;;;;;;117.63;47.07;;;;;;;0.01;86.28;99590.42;3561615;81;34961;-82
2020/12/30 23:04:55;;;;;;;95.87;43.60;;;;;;;0.04;86.79;99581.67;3563420;79;98517;-82
2020/12/30 23:09:56;;;;;;;111.47;48.10;;;;;;;0.00;86.98;99581.31;3570857;81;35199;-83
2020/12/30 23:14:56;;;;;;;100.97;44.53;;;;;;;0.05;87.20;99594.07;3563382;81;98583;-83
2020/12/30 23:19:58;;;;;;;115.03;49.50;;;;;;;0.11;87.23;99594.69;3489247;83;35063;-84
2020/12/30 23:24:59;;;;;;;133.75;58.08;;;;;;;0.23;87.50;99588.77;3564030;79;98165;-84